createdAt,value
2016-05-21T00:00:51.811Z,0
2016-05-21T00:01:51.906Z,0
2016-05-21T00:02:51.816Z,0
2016-05-21T00:03:51.912Z,0
2016-05-21T00:04:51.977Z,0
2016-05-21T00:05:51.886Z,0
2016-05-21T00:06:51.919Z,0
2016-05-21T00:07:52.080Z,0
2016-05-21T00:08:52.222Z,0
2016-05-21T00:09:52.210Z,0
2016-05-21T00:10:52.368Z,0
2016-05-21T00:11:52.164Z,0
2016-05-21T00:12:52.183Z,0
2016-05-21T00:13:52.357Z,0
2016-05-21T00:14:52.266Z,0
2016-05-21T00:15:52.316Z,0
2016-05-21T00:16:52.577Z,0
2016-05-21T00:17:52.585Z,0
2016-05-21T00:18:52.610Z,0
2016-05-21T00:19:52.540Z,0
2016-05-21T00:20:52.782Z,0
2016-05-21T00:21:52.616Z,0
2016-05-21T00:22:52.794Z,0
2016-05-21T00:23:52.907Z,0
2016-05-21T00:24:52.898Z,0
2016-05-21T00:25:52.933Z,0
2016-05-21T00:26:53.406Z,0
2016-05-21T00:27:53.035Z,0
2016-05-21T00:28:52.991Z,0
2016-05-21T00:29:53.103Z,0
2016-05-21T00:30:53.263Z,0
2016-05-21T00:31:53.204Z,0
2016-05-21T00:32:53.082Z,0
2016-05-21T00:33:53.272Z,0
2016-05-21T00:34:53.087Z,0
2016-05-21T00:35:53.356Z,0
2016-05-21T00:36:53.436Z,0
2016-05-21T00:37:53.517Z,0
2016-05-21T00:38:53.598Z,0
2016-05-21T00:39:53.381Z,0
2016-05-21T00:40:53.869Z,0
2016-05-21T00:41:53.872Z,0
2016-05-21T00:42:53.671Z,0
2016-05-21T00:43:53.705Z,0
2016-05-21T00:44:53.613Z,0
2016-05-21T00:45:53.789Z,0
2016-05-21T00:46:53.886Z,0
2016-05-21T00:47:53.872Z,0
2016-05-21T00:48:53.891Z,0
2016-05-21T00:49:54.033Z,0
2016-05-21T00:50:54.005Z,0
2016-05-21T00:51:54.055Z,0
2016-05-21T00:52:53.916Z,0
2016-05-21T00:53:53.919Z,0
2016-05-21T00:54:54.203Z,0
2016-05-21T00:55:54.096Z,0
2016-05-21T00:56:54.271Z,0
2016-05-21T00:57:54.226Z,0
2016-05-21T00:58:54.198Z,0
2016-05-21T00:59:54.373Z,0
2016-05-21T01:00:54.266Z,0
2016-05-21T01:01:54.394Z,0
2016-05-21T01:02:54.553Z,0
2016-05-21T01:03:54.337Z,0
2016-05-21T01:04:54.449Z,0
2016-05-21T01:05:54.561Z,0
2016-05-21T01:06:54.626Z,0
2016-05-21T01:07:54.676Z,0
2016-05-21T01:08:54.584Z,0
2016-05-21T01:09:54.759Z,0
2016-05-21T01:10:54.824Z,0
2016-05-21T01:11:55.436Z,0
2016-05-21T01:12:54.720Z,0
2016-05-21T01:13:54.894Z,0
2016-05-21T01:14:54.836Z,0
2016-05-21T01:15:55.010Z,0
2016-05-21T01:16:54.872Z,0
2016-05-21T01:17:55.094Z,0
2016-05-21T01:18:54.986Z,0
2016-05-21T01:19:55.161Z,0
2016-05-21T01:20:55.055Z,0
2016-05-21T01:21:55.322Z,0
2016-05-21T01:22:55.357Z,0
2016-05-21T01:23:55.344Z,0
2016-05-21T01:24:55.409Z,0
2016-05-21T01:25:55.458Z,0
2016-05-21T01:26:55.101Z,0
2016-05-21T01:27:55.495Z,0
2016-05-21T01:28:55.201Z,0
2016-05-21T01:29:55.423Z,0
2016-05-21T01:30:55.629Z,0
2016-05-21T01:31:55.646Z,0
2016-05-21T01:32:55.540Z,0
2016-05-21T01:33:55.762Z,0
2016-05-21T01:34:55.748Z,0
2016-05-21T01:35:55.782Z,0
2016-05-21T01:36:55.895Z,0
2016-05-21T01:37:55.865Z,0
2016-05-21T01:38:55.931Z,0
2016-05-21T01:39:55.856Z,0
2016-05-21T01:40:56.202Z,0
2016-05-21T01:41:55.955Z,0
2016-05-21T01:42:56.176Z,0
2016-05-21T01:43:56.148Z,0
2016-05-21T01:44:56.214Z,0
2016-05-21T01:45:56.075Z,0
2016-05-21T01:46:56.312Z,0
2016-05-21T01:47:56.377Z,0
2016-05-21T01:48:56.333Z,0
2016-05-21T01:49:56.508Z,0
2016-05-21T01:50:56.400Z,0
2016-05-21T01:51:56.607Z,0
2016-05-21T01:52:56.359Z,0
2016-05-21T01:53:56.565Z,0
2016-05-21T01:54:56.599Z,0
2016-05-21T01:55:56.618Z,0
2016-05-21T01:56:56.652Z,0
2016-05-21T01:57:56.544Z,0
2016-05-21T01:58:56.594Z,0
2016-05-21T01:59:56.832Z,0
2016-05-21T02:00:56.802Z,0
2016-05-21T02:01:56.899Z,0
2016-05-21T02:02:56.839Z,0
2016-05-21T02:03:56.951Z,0
2016-05-21T02:04:57.032Z,0
2016-05-21T02:05:57.144Z,0
2016-05-21T02:06:57.100Z,0
2016-05-21T02:07:57.118Z,0
2016-05-21T02:08:57.261Z,0
2016-05-21T02:09:57.217Z,0
2016-05-21T02:10:57.111Z,0
2016-05-21T02:11:57.270Z,0
2016-05-21T02:12:57.351Z,0
2016-05-21T02:13:57.369Z,0
2016-05-21T02:14:57.403Z,0
2016-05-21T02:15:57.281Z,0
2016-05-21T02:16:57.486Z,0
2016-05-21T02:17:57.380Z,0
2016-05-21T02:18:57.085Z,0
2016-05-21T02:19:57.603Z,0
2016-05-21T02:20:57.685Z,0
2016-05-21T02:21:57.578Z,0
2016-05-21T02:22:57.736Z,0
2016-05-21T02:23:57.802Z,0
2016-05-21T02:24:57.821Z,0
2016-05-21T02:25:57.792Z,0
2016-05-21T02:26:57.716Z,0
2016-05-21T02:27:57.828Z,0
2016-05-21T02:28:57.816Z,0
2016-05-21T02:29:58.005Z,0
2016-05-21T02:30:58.055Z,0
2016-05-21T02:31:58.058Z,0
2016-05-21T02:32:57.873Z,0
2016-05-21T02:33:58.016Z,0
2016-05-21T02:34:58.237Z,4
2016-05-21T02:35:58.163Z,4
2016-05-21T02:36:58.289Z,0
2016-05-21T02:37:58.340Z,0
2016-05-21T02:38:58.077Z,4
2016-05-21T02:39:58.486Z,4
2016-05-21T02:40:58.223Z,0
2016-05-21T02:41:58.522Z,4
2016-05-21T02:42:58.509Z,4
2016-05-21T02:43:58.747Z,4
2016-05-21T02:44:58.545Z,8
2016-05-21T02:45:58.861Z,4
2016-05-21T02:46:58.754Z,8
2016-05-21T02:47:58.741Z,8
2016-05-21T02:48:58.103Z,8
2016-05-21T02:49:58.903Z,12
2016-05-21T02:50:58.906Z,12
2016-05-21T02:51:59.002Z,16
2016-05-21T02:52:59.192Z,20
2016-05-21T02:53:59.024Z,20
2016-05-21T02:54:59.338Z,24
2016-05-21T02:55:59.638Z,28
2016-05-21T02:56:58.969Z,28
2016-05-21T02:57:59.237Z,32
2016-05-21T02:58:59.052Z,32
2016-05-21T02:59:59.243Z,32
2016-05-21T03:00:59.308Z,40
2016-05-21T03:01:59.310Z,40
2016-05-21T03:02:59.375Z,44
2016-05-21T03:03:59.269Z,48
2016-05-21T03:04:59.443Z,48
2016-05-21T03:05:59.462Z,52
2016-05-21T03:06:59.511Z,56
2016-05-21T03:07:59.482Z,60
2016-05-21T03:08:59.439Z,64
2016-05-21T03:09:59.613Z,72
2016-05-21T03:10:59.537Z,80
2016-05-21T03:11:59.775Z,92
2016-05-21T03:12:59.809Z,100
2016-05-21T03:13:59.952Z,108
2016-05-21T03:14:59.923Z,116
2016-05-21T03:15:59.958Z,124
2016-05-21T03:17:00.100Z,128
2016-05-21T03:17:59.994Z,136
2016-05-21T03:19:00.028Z,144
2016-05-21T03:19:59.889Z,152
2016-05-21T03:21:00.143Z,164
2016-05-21T03:22:00.255Z,172
2016-05-21T03:23:00.273Z,176
2016-05-21T03:24:00.230Z,188
2016-05-21T03:24:59.513Z,196
2016-05-21T03:26:00.141Z,204
2016-05-21T03:27:00.440Z,216
2016-05-21T03:28:00.225Z,228
2016-05-21T03:29:00.430Z,240
2016-05-21T03:30:00.323Z,248
2016-05-21T03:31:00.513Z,264
2016-05-21T03:32:00.360Z,284
2016-05-21T03:33:00.643Z,312
2016-05-21T03:34:00.615Z,352
2016-05-21T03:35:00.602Z,396
2016-05-21T03:36:00.574Z,452
2016-05-21T03:37:00.873Z,508
2016-05-21T03:38:00.782Z,552
2016-05-21T03:39:00.941Z,592
2016-05-21T03:40:00.959Z,628
2016-05-21T03:41:01.228Z,664
2016-05-21T03:42:00.918Z,708
2016-05-21T03:43:01.123Z,772
2016-05-21T03:44:00.923Z,852
2016-05-21T03:45:01.114Z,944
2016-05-21T03:46:00.788Z,1036
2016-05-21T03:47:01.228Z,1120
2016-05-21T03:48:01.262Z,1192
2016-05-21T03:49:01.281Z,1260
2016-05-21T03:50:01.236Z,1308
2016-05-21T03:51:01.395Z,1360
2016-05-21T03:52:01.445Z,1412
2016-05-21T03:53:01.463Z,1452
2016-05-21T03:54:01.685Z,1492
2016-05-21T03:55:01.563Z,1532
2016-05-21T03:56:01.533Z,1576
2016-05-21T03:57:01.739Z,1624
2016-05-21T03:58:01.524Z,1680
2016-05-21T03:59:01.699Z,1716
2016-05-21T04:00:01.919Z,1740
2016-05-21T04:01:01.704Z,1760
2016-05-21T04:02:01.924Z,1780
2016-05-21T04:03:01.771Z,1796
2016-05-21T04:04:01.883Z,1820
2016-05-21T04:05:01.949Z,1856
2016-05-21T04:06:02.045Z,1904
2016-05-21T04:07:02.001Z,1972
2016-05-21T04:08:02.051Z,2048
2016-05-21T04:09:02.131Z,2112
2016-05-21T04:10:02.056Z,2180
2016-05-21T04:11:02.090Z,2268
2016-05-21T04:12:02.014Z,2344
2016-05-21T04:13:02.189Z,2416
2016-05-21T04:14:02.254Z,2488
2016-05-21T04:15:02.398Z,2584
2016-05-21T04:16:02.370Z,2668
2016-05-21T04:17:02.372Z,2736
2016-05-21T04:18:02.406Z,2736
2016-05-21T04:19:02.455Z,2704
2016-05-21T04:20:02.583Z,2664
2016-05-21T04:21:02.508Z,2648
2016-05-21T04:22:02.557Z,2664
2016-05-21T04:23:02.325Z,2672
2016-05-21T04:24:02.641Z,2692
2016-05-21T04:25:02.533Z,2696
2016-05-21T04:26:03.350Z,2688
2016-05-21T04:27:03.007Z,2688
2016-05-21T04:28:02.807Z,2724
2016-05-21T04:29:02.841Z,2768
2016-05-21T04:30:02.750Z,2812
2016-05-21T04:31:02.800Z,2860
2016-05-21T04:32:02.958Z,2904
2016-05-21T04:33:02.883Z,2928
2016-05-21T04:34:02.901Z,2916
2016-05-21T04:35:02.935Z,2916
2016-05-21T04:36:02.969Z,2920
2016-05-21T04:37:03.237Z,2920
2016-05-21T04:38:03.241Z,2908
2016-05-21T04:39:03.118Z,2936
2016-05-21T04:40:03.309Z,2928
2016-05-21T04:41:03.546Z,2940
2016-05-21T04:42:03.376Z,2980
2016-05-21T04:43:03.285Z,3048
2016-05-21T04:44:03.319Z,3136
2016-05-21T04:45:03.525Z,3228
2016-05-21T04:46:03.559Z,3312
2016-05-21T04:47:03.593Z,3368
2016-05-21T04:48:03.673Z,3380
2016-05-21T04:49:03.536Z,3420
2016-05-21T04:50:03.695Z,3448
2016-05-21T04:51:03.760Z,3488
2016-05-21T04:52:03.856Z,3536
2016-05-21T04:53:03.719Z,3572
2016-05-21T04:54:03.861Z,3632
2016-05-21T04:55:03.911Z,3708
2016-05-21T04:56:03.758Z,3764
2016-05-21T04:57:03.823Z,3824
2016-05-21T04:58:04.044Z,3908
2016-05-21T04:59:04.077Z,4024
2016-05-21T05:00:04.097Z,4172
2016-05-21T05:01:04.161Z,4376
2016-05-21T05:02:04.258Z,4648
2016-05-21T05:03:04.245Z,4988
2016-05-21T05:04:04.138Z,5436
2016-05-21T05:05:04.172Z,5932
2016-05-21T05:06:04.207Z,6352
2016-05-21T05:07:04.412Z,6548
2016-05-21T05:08:04.305Z,6584
2016-05-21T05:09:04.495Z,6484
2016-05-21T05:10:04.577Z,6308
2016-05-21T05:11:04.579Z,6188
2016-05-21T05:12:04.457Z,6268
2016-05-21T05:13:04.710Z,6456
2016-05-21T05:14:04.728Z,6480
2016-05-21T05:15:04.746Z,6412
2016-05-21T05:16:04.640Z,6340
2016-05-21T05:17:04.877Z,6304
2016-05-21T05:18:04.864Z,6380
2016-05-21T05:19:04.882Z,6432
2016-05-21T05:20:04.947Z,6432
2016-05-21T05:21:04.684Z,6408
2016-05-21T05:22:05.047Z,6592
2016-05-21T05:23:05.080Z,6656
2016-05-21T05:24:05.083Z,6628
2016-05-21T05:25:05.164Z,6620
2016-05-21T05:26:05.307Z,6512
2016-05-21T05:27:05.231Z,6528
2016-05-21T05:28:05.344Z,6552
2016-05-21T05:29:05.330Z,6492
2016-05-21T05:30:05.381Z,6360
2016-05-21T05:31:05.430Z,6212
2016-05-21T05:32:05.479Z,6168
2016-05-21T05:33:05.497Z,6200
2016-05-21T05:34:05.516Z,6248
2016-05-21T05:35:05.644Z,6300
2016-05-21T05:36:05.615Z,6324
2016-05-21T05:37:05.681Z,6208
2016-05-21T05:38:05.698Z,6068
2016-05-21T05:39:05.607Z,6016
2016-05-21T05:40:05.798Z,6024
2016-05-21T05:41:06.176Z,6172
2016-05-21T05:42:06.428Z,6260
2016-05-21T05:43:05.931Z,6372
2016-05-21T05:44:18.762Z,6420
2016-05-21T05:45:06.030Z,6388
2016-05-21T05:46:05.923Z,6356
2016-05-21T05:47:06.020Z,6324
2016-05-21T05:48:05.975Z,6372
2016-05-21T05:49:06.228Z,6364
2016-05-21T05:50:06.247Z,6336
2016-05-21T05:51:06.234Z,6348
2016-05-21T05:52:06.127Z,6408
2016-05-21T05:53:06.223Z,6512
2016-05-21T05:54:06.070Z,6504
2016-05-21T05:55:06.385Z,6516
2016-05-21T05:56:06.856Z,6556
2016-05-21T05:57:06.359Z,6524
2016-05-21T05:58:06.550Z,6464
2016-05-21T05:59:06.583Z,6420
2016-05-21T06:00:06.492Z,6384
2016-05-21T06:01:06.557Z,6396
2016-05-21T06:02:06.560Z,6492
2016-05-21T06:03:06.782Z,6664
2016-05-21T06:04:06.816Z,6828
2016-05-21T06:05:06.834Z,6964
2016-05-21T06:06:06.883Z,6892
2016-05-21T06:07:06.949Z,6756
2016-05-21T06:08:06.982Z,6800
2016-05-21T06:09:07.032Z,7076
2016-05-21T06:10:07.051Z,7432
2016-05-21T06:11:07.538Z,7696
2016-05-21T06:12:07.149Z,7840
2016-05-21T06:13:07.012Z,7992
2016-05-21T06:14:07.249Z,8164
2016-05-21T06:15:07.267Z,8248
2016-05-21T06:16:07.285Z,8152
2016-05-21T06:17:07.351Z,8048
2016-05-21T06:18:07.275Z,8240
2016-05-21T06:19:07.465Z,8440
2016-05-21T06:20:07.468Z,8672
2016-05-21T06:21:07.517Z,8688
2016-05-21T06:22:07.567Z,8588
2016-05-21T06:23:07.601Z,8468
2016-05-21T06:24:07.635Z,8452
2016-05-21T06:25:07.716Z,8572
2016-05-21T06:26:07.937Z,8656
2016-05-21T06:27:07.987Z,8700
2016-05-21T06:28:07.802Z,8752
2016-05-21T06:29:07.852Z,8676
2016-05-21T06:30:07.917Z,8524
2016-05-21T06:31:07.778Z,8400
2016-05-21T06:32:07.828Z,8328
2016-05-21T06:33:08.080Z,8308
2016-05-21T06:34:08.068Z,8268
2016-05-21T06:35:08.102Z,8264
2016-05-21T06:36:08.183Z,8472
2016-05-21T06:37:08.217Z,8672
2016-05-21T06:38:08.235Z,8972
2016-05-21T06:39:08.285Z,9356
2016-05-21T06:40:08.350Z,9676
2016-05-21T06:41:08.556Z,9972
2016-05-21T06:42:08.261Z,10288
2016-05-21T06:43:08.468Z,10508
2016-05-21T06:44:08.548Z,10744
2016-05-21T06:45:08.551Z,10860
2016-05-21T06:46:08.568Z,10852
2016-05-21T06:47:08.321Z,10804
2016-05-21T06:48:08.543Z,10828
2016-05-21T06:49:08.702Z,10948
2016-05-21T06:50:08.752Z,11060
2016-05-21T06:51:08.848Z,11124
2016-05-21T06:52:08.835Z,11136
2016-05-21T06:53:08.712Z,10984
2016-05-21T06:54:08.950Z,10912
2016-05-21T06:55:08.828Z,10996
2016-05-21T06:56:09.221Z,11304
2016-05-21T06:57:08.755Z,11708
2016-05-21T06:58:09.133Z,12004
2016-05-21T06:59:09.167Z,12028
2016-05-21T07:00:09.185Z,11932
2016-05-21T07:01:09.250Z,11764
2016-05-21T07:02:09.284Z,11720
2016-05-21T07:03:09.318Z,11644
2016-05-21T07:04:09.352Z,11448
2016-05-21T07:05:09.417Z,11196
2016-05-21T07:06:09.452Z,10936
2016-05-21T07:07:09.500Z,10592
2016-05-21T07:08:09.363Z,10212
2016-05-21T07:09:09.600Z,10068
2016-05-21T07:10:09.618Z,9856
2016-05-21T07:11:09.526Z,9656
2016-05-21T07:12:09.577Z,9508
2016-05-21T07:13:09.735Z,9140
2016-05-21T07:14:09.801Z,8656
2016-05-21T07:15:09.866Z,8240
2016-05-21T07:16:09.884Z,8068
2016-05-21T07:17:09.777Z,7744
2016-05-21T07:18:10.827Z,7352
2016-05-21T07:19:09.877Z,7228
2016-05-21T07:20:09.942Z,7576
2016-05-21T07:21:10.101Z,8036
2016-05-21T07:22:10.854Z,8280
2016-05-21T07:23:10.028Z,8520
2016-05-21T07:24:09.937Z,9308
2016-05-21T07:25:10.283Z,10116
2016-05-21T07:26:10.412Z,10204
2016-05-21T07:27:10.414Z,10332
2016-05-21T07:28:10.400Z,10636
2016-05-21T07:29:10.451Z,10848
2016-05-21T07:30:10.312Z,11344
2016-05-21T07:31:10.409Z,11840
2016-05-21T07:32:10.553Z,12616
2016-05-21T07:33:10.602Z,13428
2016-05-21T07:34:10.683Z,14084
2016-05-21T07:35:10.700Z,14900
2016-05-21T07:36:10.750Z,14856
2016-05-21T07:37:10.660Z,14724
2016-05-21T07:38:10.865Z,14632
2016-05-21T07:39:10.711Z,14724
2016-05-21T07:40:10.964Z,14480
2016-05-21T07:41:11.030Z,14400
2016-05-21T07:42:11.360Z,14312
2016-05-21T07:43:11.066Z,14340
2016-05-21T07:44:11.116Z,14440
2016-05-21T07:45:11.134Z,14556
2016-05-21T07:46:11.184Z,14524
2016-05-21T07:47:11.093Z,14456
2016-05-21T07:48:11.268Z,14356
2016-05-21T07:49:11.160Z,14084
2016-05-21T07:50:11.257Z,13740
2016-05-21T07:51:11.291Z,13408
2016-05-21T07:52:11.137Z,13288
2016-05-21T07:53:11.483Z,13320
2016-05-21T07:54:11.549Z,13496
2016-05-21T07:55:11.442Z,13792
2016-05-21T07:56:12.023Z,14156
2016-05-21T07:57:11.854Z,14680
2016-05-21T07:58:11.575Z,14928
2016-05-21T07:59:11.906Z,14792
2016-05-21T08:00:11.784Z,14432
2016-05-21T08:01:11.834Z,13916
2016-05-21T08:02:11.883Z,13684
2016-05-21T08:03:11.792Z,13976
2016-05-21T08:04:11.966Z,14364
2016-05-21T08:05:12.063Z,14744
2016-05-21T08:06:12.066Z,15124
2016-05-21T08:07:12.116Z,15468
2016-05-21T08:08:11.993Z,15672
2016-05-21T08:09:12.199Z,15224
2016-05-21T08:10:12.233Z,14804
2016-05-21T08:11:12.407Z,14464
2016-05-21T08:12:12.379Z,14408
2016-05-21T08:13:12.397Z,14196
2016-05-21T08:14:12.399Z,13964
2016-05-21T08:15:12.309Z,14220
2016-05-21T08:16:12.514Z,13676
2016-05-21T08:17:12.314Z,13648
2016-05-21T08:18:12.504Z,12888
2016-05-21T08:19:12.523Z,12232
2016-05-21T08:20:12.760Z,11708
2016-05-21T08:21:12.590Z,11016
2016-05-21T08:22:12.781Z,10448
2016-05-21T08:23:12.752Z,9880
2016-05-21T08:24:13.973Z,9388
2016-05-21T08:25:12.914Z,9628
2016-05-21T08:26:12.932Z,9780
2016-05-21T08:27:13.012Z,10108
2016-05-21T08:28:12.906Z,10232
2016-05-21T08:29:13.112Z,10004
2016-05-21T08:30:12.990Z,9748
2016-05-21T08:31:13.164Z,9984
2016-05-21T08:32:13.089Z,10504
2016-05-21T08:33:13.310Z,11384
2016-05-21T08:34:13.188Z,11836
2016-05-21T08:35:13.347Z,12176
2016-05-21T08:36:13.287Z,12464
2016-05-21T08:37:13.462Z,12352
2016-05-21T08:38:13.574Z,12452
2016-05-21T08:39:13.483Z,12004
2016-05-21T08:40:13.750Z,12064
2016-05-21T08:41:13.894Z,11304
2016-05-21T08:42:14.522Z,11276
2016-05-21T08:43:13.743Z,11684
2016-05-21T08:44:13.902Z,11760
2016-05-21T08:45:13.843Z,11136
2016-05-21T08:46:13.907Z,10636
2016-05-21T08:47:13.957Z,11092
2016-05-21T08:48:13.976Z,11208
2016-05-21T08:49:13.807Z,11796
2016-05-21T08:50:14.012Z,11932
2016-05-21T08:51:14.062Z,11744
2016-05-21T08:52:13.939Z,11296
2016-05-21T08:53:14.145Z,10636
2016-05-21T08:54:14.210Z,10956
2016-05-21T08:55:14.229Z,11096
2016-05-21T08:56:14.793Z,11016
2016-05-21T08:57:14.171Z,11048
2016-05-21T08:58:14.393Z,10792
2016-05-21T08:59:14.427Z,10360
2016-05-21T09:00:14.336Z,10112
2016-05-21T09:01:14.495Z,9772
2016-05-21T09:02:14.669Z,9636
2016-05-21T09:03:14.579Z,9540
2016-05-21T09:04:14.612Z,9288
2016-05-21T09:05:14.661Z,9208
2016-05-21T09:06:14.759Z,9024
2016-05-21T09:07:14.808Z,8792
2016-05-21T09:08:15.717Z,8752
2016-05-21T09:09:14.704Z,8640
2016-05-21T09:10:14.879Z,8600
2016-05-21T09:11:16.069Z,9212
2016-05-21T09:12:14.994Z,9604
2016-05-21T09:13:16.089Z,9124
2016-05-21T09:14:14.796Z,8436
2016-05-21T09:15:15.111Z,9208
2016-05-21T09:16:15.191Z,9252
2016-05-21T09:17:15.366Z,9012
2016-05-21T09:18:15.282Z,8904
2016-05-21T09:19:15.337Z,8860
2016-05-21T09:20:15.266Z,8840
2016-05-21T09:21:15.525Z,8820
2016-05-21T09:22:15.549Z,8852
2016-05-21T09:23:15.433Z,8812
2016-05-21T09:24:15.678Z,8864
2016-05-21T09:25:15.767Z,8988
2016-05-21T09:26:16.324Z,9380
2016-05-21T09:27:15.475Z,10188
2016-05-21T09:28:16.026Z,10580
2016-05-21T09:29:15.860Z,9064
2016-05-21T09:30:15.834Z,9696
2016-05-21T09:31:16.058Z,9856
2016-05-21T09:32:16.158Z,10348
2016-05-21T09:33:16.068Z,10988
2016-05-21T09:34:16.134Z,11784
2016-05-21T09:35:15.998Z,12272
2016-05-21T09:36:16.188Z,11848
2016-05-21T09:37:16.286Z,11180
2016-05-21T09:38:16.320Z,11308
2016-05-21T09:39:16.356Z,11240
2016-05-21T09:40:16.373Z,11580
2016-05-21T09:41:16.423Z,11948
2016-05-21T09:42:16.615Z,12688
2016-05-21T09:43:16.524Z,12660
2016-05-21T09:44:16.401Z,12652
2016-05-21T09:45:16.294Z,13228
2016-05-21T09:46:16.640Z,14212
2016-05-21T09:47:16.784Z,15972
2016-05-21T09:48:16.599Z,17016
2016-05-21T09:49:16.821Z,18080
2016-05-21T09:50:16.978Z,18304
2016-05-21T09:51:16.889Z,17600
2016-05-21T09:52:16.938Z,17156
2016-05-21T09:53:16.972Z,17024
2016-05-21T09:54:17.036Z,14292
2016-05-21T09:55:17.055Z,13456
2016-05-21T09:56:17.183Z,11616
2016-05-21T09:57:17.060Z,12408
2016-05-21T09:58:17.235Z,14076
2016-05-21T09:59:17.066Z,17600
2016-05-21T10:00:17.303Z,18368
2016-05-21T10:01:17.305Z,19200
2016-05-21T10:02:17.355Z,19040
2016-05-21T10:03:17.421Z,21792
2016-05-21T10:04:17.486Z,22464
2016-05-21T10:05:17.488Z,22752
2016-05-21T10:06:17.522Z,22912
2016-05-21T10:07:17.447Z,23904
2016-05-21T10:08:17.527Z,22976
2016-05-21T10:09:19.687Z,22592
2016-05-21T10:10:18.455Z,21056
2016-05-21T10:11:18.160Z,21088
2016-05-21T10:12:17.960Z,20800
2016-05-21T10:13:17.870Z,18912
2016-05-21T10:14:17.622Z,18400
2016-05-21T10:15:18.046Z,16460
2016-05-21T10:16:18.017Z,14604
2016-05-21T10:17:18.115Z,15736
2016-05-21T10:18:18.289Z,17792
2016-05-21T10:19:18.213Z,18816
2016-05-21T10:20:18.231Z,17440
2016-05-21T10:21:18.376Z,14444
2016-05-21T10:22:18.378Z,17112
2016-05-21T10:23:18.381Z,90720
2016-05-21T10:24:18.400Z,130272
2016-05-21T10:25:18.277Z,48896
2016-05-21T10:26:18.591Z,79872
2016-05-21T10:27:19.047Z,60512
2016-05-21T10:28:18.769Z,63840
2016-05-21T10:29:18.616Z,92704
2016-05-21T10:30:18.649Z,97728
2016-05-21T10:31:18.699Z,93440
2016-05-21T10:32:18.983Z,93120
2016-05-21T10:33:18.861Z,99616
2016-05-21T10:34:18.863Z,105984
2016-05-21T10:35:18.788Z,110752
2016-05-21T10:36:19.072Z,114240
2016-05-21T10:37:18.919Z,114848
2016-05-21T10:38:18.874Z,114720
2016-05-21T10:39:19.111Z,116960
2016-05-21T10:40:19.286Z,116480
2016-05-21T10:41:19.429Z,121600
2016-05-21T10:42:19.525Z,121088
2016-05-21T10:43:19.340Z,116928
2016-05-21T10:44:19.374Z,108992
2016-05-21T10:45:19.424Z,100768
2016-05-21T10:46:19.504Z,97152
2016-05-21T10:47:19.617Z,97472
2016-05-21T10:48:19.729Z,100736
2016-05-21T10:49:19.482Z,105856
2016-05-21T10:50:19.515Z,109760
2016-05-21T10:51:19.643Z,112128
2016-05-21T10:52:19.850Z,115744
2016-05-21T10:53:20.009Z,112800
2016-05-21T10:54:20.026Z,108224
2016-05-21T10:55:19.858Z,106496
2016-05-21T10:56:19.970Z,108928
2016-05-21T10:57:20.239Z,110944
2016-05-21T10:58:20.177Z,111936
2016-05-21T10:59:20.244Z,113440
2016-05-21T11:00:20.386Z,112896
2016-05-21T11:01:20.233Z,109952
2016-05-21T11:02:20.438Z,112128
2016-05-21T11:03:20.458Z,113152
2016-05-21T11:04:20.538Z,113856
2016-05-21T11:05:20.571Z,112768
2016-05-21T11:06:20.652Z,110144
2016-05-21T11:07:20.530Z,108288
2016-05-21T11:08:20.721Z,109536
2016-05-21T11:09:20.816Z,108864
2016-05-21T11:10:20.788Z,109952
2016-05-21T11:11:20.822Z,116480
2016-05-21T11:12:21.138Z,119520
2016-05-21T11:13:21.062Z,29312
2016-05-21T11:14:21.112Z,123936
2016-05-21T11:15:21.005Z,123872
2016-05-21T11:16:21.335Z,119424
2016-05-21T11:17:21.432Z,121856
2016-05-21T11:18:21.513Z,133952
2016-05-21T11:19:21.453Z,136768
2016-05-21T11:20:21.550Z,139392
2016-05-21T11:21:21.521Z,140800
2016-05-21T11:22:21.601Z,109376
2016-05-21T11:23:21.761Z,92896
2016-05-21T11:24:21.732Z,67040
2016-05-21T11:25:21.859Z,90976
2016-05-21T11:26:21.909Z,144512
2016-05-21T11:27:21.771Z,139616
2016-05-21T11:28:38.683Z,35456
2016-05-21T11:29:22.074Z,78688
2016-05-21T11:30:21.920Z,119296
2016-05-21T11:31:22.141Z,141504
2016-05-21T11:32:22.035Z,138432
2016-05-21T11:33:22.256Z,140320
2016-05-21T11:34:22.181Z,138688
2016-05-21T11:35:22.402Z,135136
2016-05-21T11:36:22.499Z,126304
2016-05-21T11:37:22.502Z,119680
2016-05-21T11:38:22.474Z,119968
2016-05-21T11:39:22.476Z,126400
2016-05-21T11:40:22.869Z,135392
2016-05-21T11:41:22.590Z,142592
2016-05-21T11:42:22.718Z,87360
2016-05-21T11:43:22.579Z,106976
2016-05-21T11:44:22.927Z,130368
2016-05-21T11:45:24.788Z,123520
2016-05-21T11:46:23.120Z,114272
2016-05-21T11:47:23.123Z,117120
2016-05-21T11:48:23.204Z,124608
2016-05-21T11:49:23.346Z,127904
2016-05-21T11:50:23.302Z,135808
2016-05-21T11:51:23.367Z,138848
2016-05-21T11:52:23.464Z,136192
2016-05-21T11:53:23.357Z,127552
2016-05-21T11:54:23.594Z,130784
2016-05-21T11:55:23.753Z,128928
2016-05-21T11:56:23.740Z,132256
2016-05-21T11:57:25.634Z,20288
2016-05-21T11:58:23.808Z,26016
2016-05-21T11:59:23.576Z,144256
2016-05-21T12:00:23.953Z,138208
2016-05-21T12:01:24.003Z,132000
2016-05-21T12:02:24.130Z,124896
2016-05-21T12:03:24.134Z,120800
2016-05-21T12:04:24.184Z,116480
2016-05-21T12:05:24.124Z,118944
2016-05-21T12:06:24.454Z,118272
2016-05-21T12:07:24.222Z,129088
2016-05-21T12:08:24.257Z,36992
2016-05-21T12:09:24.650Z,114336
2016-05-21T12:10:24.544Z,26048
2016-05-21T12:11:24.655Z,112512
2016-05-21T12:12:25.471Z,41152
2016-05-21T12:13:24.473Z,23680
2016-05-21T12:14:24.616Z,21728
2016-05-21T12:15:24.901Z,20576
2016-05-21T12:16:24.904Z,21600
2016-05-21T12:17:24.968Z,24640
2016-05-21T12:18:25.018Z,70016
2016-05-21T12:19:25.146Z,107264
2016-05-21T12:20:25.164Z,120192
2016-05-21T12:21:25.182Z,116512
2016-05-21T12:22:25.310Z,118880
2016-05-21T12:23:25.203Z,43104
2016-05-21T12:24:25.378Z,90144
2016-05-21T12:25:25.428Z,113184
2016-05-21T12:26:25.180Z,116160
2016-05-21T12:27:25.573Z,55200
2016-05-21T12:28:25.608Z,119968
2016-05-21T12:29:25.719Z,117728
2016-05-21T12:30:25.769Z,45824
2016-05-21T12:31:25.756Z,78720
2016-05-21T12:32:25.822Z,107584
2016-05-21T12:33:25.747Z,108416
2016-05-21T12:34:25.795Z,23264
2016-05-21T12:35:25.986Z,23456
2016-05-21T12:36:26.082Z,23104
2016-05-21T12:37:26.147Z,21984
2016-05-21T12:38:28.696Z,100192
2016-05-21T12:39:26.888Z,128480
2016-05-21T12:40:26.686Z,126784
2016-05-21T12:41:26.329Z,115296
2016-05-21T12:42:26.427Z,113312
2016-05-21T12:43:26.460Z,105152
2016-05-21T12:44:26.510Z,105472
2016-05-21T12:45:26.482Z,101344
2016-05-21T12:46:26.452Z,94496
2016-05-21T12:47:26.940Z,102560
2016-05-21T12:48:26.739Z,117376
2016-05-21T12:49:26.664Z,114720
2016-05-21T12:50:26.854Z,113312
2016-05-21T12:51:26.904Z,116576
2016-05-21T12:52:26.985Z,119296
2016-05-21T12:53:27.034Z,125024
2016-05-21T12:54:27.006Z,25184
2016-05-21T12:55:27.242Z,24576
2016-05-21T12:56:27.417Z,26720
2016-05-21T12:57:27.373Z,110592
2016-05-21T12:58:27.172Z,108896
2016-05-21T12:59:27.456Z,27296
2016-05-21T13:00:27.365Z,24640
2016-05-21T13:01:27.400Z,25728
2016-05-21T13:02:27.574Z,42240
2016-05-21T13:03:27.655Z,33184
2016-05-21T13:04:27.720Z,90720
2016-05-21T13:05:27.722Z,86784
2016-05-21T13:06:27.788Z,33024
2016-05-21T13:07:27.899Z,26176
2016-05-21T13:08:27.808Z,26144
2016-05-21T13:09:28.343Z,28192
2016-05-21T13:10:28.236Z,70752
2016-05-21T13:11:27.942Z,84160
2016-05-21T13:12:28.663Z,81472
2016-05-21T13:13:28.166Z,78944
2016-05-21T13:14:28.277Z,75392
2016-05-21T13:15:28.110Z,79168
2016-05-21T13:16:28.314Z,80608
2016-05-21T13:17:28.426Z,73856
2016-05-21T13:18:27.679Z,61952
2016-05-21T13:19:28.573Z,40672
2016-05-21T13:20:28.498Z,31392
2016-05-21T13:21:28.718Z,28576
2016-05-21T13:22:28.487Z,37920
2016-05-21T13:23:28.834Z,34816